createdAt,value
2023-02-26T00:01:40.230Z,19.98
2023-02-26T00:06:56.860Z,22.23
2023-02-26T00:12:02.013Z,18.76
2023-02-26T00:17:17.291Z,15.77
2023-02-26T00:22:22.826Z,12.84
2023-02-26T00:27:28.666Z,10.99
2023-02-26T00:32:32.460Z,10.67
2023-02-26T00:37:51.488Z,17.44
2023-02-26T00:42:55.333Z,10.17
2023-02-26T00:48:14.450Z,11.84
2023-02-26T00:53:23.451Z,11.66
2023-02-26T00:58:29.293Z,10.51
2023-02-26T01:03:33.520Z,10.69
2023-02-26T01:08:45.164Z,15.14
2023-02-26T01:13:51.415Z,10.52
2023-02-26T01:18:59.341Z,12.48
2023-02-26T01:24:13.935Z,11.26
2023-02-26T01:29:18.122Z,10.34
2023-02-26T01:34:27.370Z,10.49
2023-02-26T01:39:39.219Z,9.56
2023-02-26T01:44:54.494Z,11.86
2023-02-26T01:49:58.145Z,10.64
2023-02-26T01:55:06.177Z,10.26
2023-02-26T02:00:16.174Z,10.39
2023-02-26T02:05:24.125Z,10.63
2023-02-26T02:10:29.092Z,11.56
2023-02-26T02:15:43.243Z,16.09
2023-02-26T02:20:58.754Z,9.97
2023-02-26T02:26:18.567Z,17.58
2023-02-26T02:31:28.069Z,10.82
2023-02-26T02:36:37.795Z,15.19
2023-02-26T02:41:47.473Z,11.38
2023-02-26T02:46:56.485Z,11.94
2023-02-26T02:52:02.897Z,12.58
2023-02-26T02:57:11.444Z,11.98
2023-02-26T03:02:24.608Z,11.17
2023-02-26T03:07:30.464Z,12.03
2023-02-26T03:12:34.304Z,11.31
2023-02-26T03:17:46.011Z,11.12
2023-02-26T03:22:56.399Z,14.05
2023-02-26T03:28:12.419Z,17.55
2023-02-26T03:33:24.504Z,20.94
2023-02-26T03:38:32.741Z,22.50
2023-02-26T03:43:42.918Z,23.90
2023-02-26T03:48:52.672Z,24.99
2023-02-26T03:54:03.349Z,22.78
2023-02-26T03:59:10.975Z,20.83
2023-02-26T04:04:29.434Z,22.73
2023-02-26T04:09:33.449Z,19.85
2023-02-26T04:14:39.448Z,23.73
2023-02-26T04:19:44.655Z,23.44
2023-02-26T04:24:50.537Z,23.01
2023-02-26T04:29:54.986Z,34.96
2023-02-26T04:35:05.866Z,24.35
2023-02-26T04:40:10.375Z,26.43
2023-02-26T04:45:14.312Z,26.37
2023-02-26T04:50:19.327Z,17.53
2023-02-26T04:55:25.284Z,24.64
2023-02-26T05:00:29.426Z,19.71
2023-02-26T05:05:34.396Z,22.97
2023-02-26T05:10:37.980Z,20.99
2023-02-26T05:15:44.664Z,15.50
2023-02-26T05:20:54.685Z,19.35
2023-02-26T05:26:00.867Z,53.13
2023-02-26T05:31:06.933Z,17.09
2023-02-26T05:36:14.979Z,19.10
2023-02-26T05:41:21.070Z,23.44
2023-02-26T05:46:27.205Z,20.99
2023-02-26T05:51:32.324Z,18.25
2023-02-26T05:56:35.827Z,19.96
2023-02-26T06:01:39.549Z,18.00
2023-02-26T06:06:44.658Z,17.71
2023-02-26T06:11:48.314Z,16.39
2023-02-26T06:16:51.740Z,26.60
2023-02-26T06:21:58.775Z,15.54
2023-02-26T06:27:02.335Z,16.90
2023-02-26T06:32:08.876Z,21.12
2023-02-26T06:37:15.109Z,19.21
2023-02-26T06:42:20.816Z,30.65
2023-02-26T06:47:26.545Z,19.92
2023-02-26T06:52:31.469Z,24.87
2023-02-26T06:57:34.962Z,21.37
2023-02-26T07:02:43.008Z,18.98
2023-02-26T07:07:50.173Z,19.39
2023-02-26T07:12:55.775Z,19.23
2023-02-26T07:18:00.211Z,20.21
2023-02-26T07:23:05.552Z,20.90
2023-02-26T07:28:11.972Z,19.14
2023-02-26T07:33:17.731Z,17.53
2023-02-26T07:38:24.995Z,14.86
2023-02-26T07:43:30.642Z,13.99
2023-02-26T07:48:34.172Z,17.12
2023-02-26T07:53:41.081Z,18.13
2023-02-26T07:58:46.656Z,21.24
2023-02-26T08:03:50.187Z,21.18
2023-02-26T08:08:57.928Z,19.00
2023-02-26T08:14:04.285Z,18.93
2023-02-26T08:19:08.041Z,16.72
2023-02-26T08:24:15.185Z,16.97
2023-02-26T08:29:19.034Z,18.26
2023-02-26T08:34:22.679Z,18.86
2023-02-26T08:39:33.046Z,15.38
2023-02-26T08:44:36.737Z,19.90
2023-02-26T08:49:42.450Z,20.38
2023-02-26T08:54:49.920Z,19.62
2023-02-26T08:59:53.407Z,20.15
2023-02-26T09:04:56.892Z,17.04
2023-02-26T09:10:01.774Z,20.33
2023-02-26T09:15:09.736Z,24.21
2023-02-26T09:20:14.760Z,21.75
2023-02-26T09:25:19.669Z,17.56
2023-02-26T09:30:25.898Z,16.09
2023-02-26T09:35:34.092Z,10.55
2023-02-26T09:40:46.432Z,7.08
2023-02-26T09:45:52.136Z,6.19
2023-02-26T09:50:57.802Z,5.66
2023-02-26T09:56:05.821Z,5.43
2023-02-26T10:01:16.219Z,6.18
2023-02-26T10:06:25.809Z,10.00
2023-02-26T10:11:36.967Z,81.74
2023-02-26T10:16:44.073Z,5.85
2023-02-26T10:21:53.443Z,6.84
2023-02-26T10:27:02.026Z,10.39
2023-02-26T10:32:22.986Z,9.06
2023-02-26T10:37:35.945Z,7.82
2023-02-26T10:42:44.335Z,7.41
2023-02-26T10:47:57.570Z,17.98
2023-02-26T10:53:03.761Z,7.43
2023-02-26T10:58:13.359Z,14.97
2023-02-26T11:03:21.050Z,6.26
2023-02-26T11:08:26.865Z,7.58
2023-02-26T11:13:35.673Z,6.89
2023-02-26T11:18:41.562Z,6.35
2023-02-26T11:23:47.285Z,5.66
2023-02-26T11:28:56.419Z,6.41
2023-02-26T11:34:01.716Z,44.41
2023-02-26T11:39:08.507Z,7.83
2023-02-26T11:44:16.019Z,20.10
2023-02-26T11:49:24.421Z,22.82
2023-02-26T11:54:29.452Z,18.38
2023-02-26T11:59:34.307Z,16.71
2023-02-26T12:04:41.562Z,15.72
2023-02-26T12:09:46.085Z,14.52
2023-02-26T12:15:15.676Z,16.67
2023-02-26T12:20:23.810Z,26.69
2023-02-26T12:25:42.970Z,22.47
2023-02-26T12:31:01.601Z,16.29
2023-02-26T12:36:17.792Z,16.26
2023-02-26T12:41:42.652Z,20.84
2023-02-26T12:47:07.708Z,22.79
2023-02-26T12:52:28.847Z,37.13
2023-02-26T12:57:50.294Z,16.83
2023-02-26T13:03:19.535Z,20.18
2023-02-26T13:08:38.319Z,21.42
2023-02-26T13:14:00.112Z,22.75
2023-02-26T13:19:14.494Z,19.64
2023-02-26T13:24:35.249Z,22.61
2023-02-26T13:29:49.586Z,47.38
2023-02-26T13:34:58.712Z,22.19
2023-02-26T13:40:14.344Z,22.06
2023-02-26T13:45:25.398Z,18.14
2023-02-26T13:50:38.260Z,19.07
2023-02-26T13:55:46.158Z,6.46
2023-02-26T14:01:00.441Z,17.53
2023-02-26T14:06:24.679Z,22.13
2023-02-26T14:11:43.605Z,54.81
2023-02-26T14:16:50.584Z,20.37
2023-02-26T14:21:59.087Z,20.26
2023-02-26T14:27:08.792Z,20.37
2023-02-26T14:32:16.251Z,15.48
2023-02-26T14:37:24.463Z,33.62
2023-02-26T14:42:33.525Z,10.14
2023-02-26T14:47:38.098Z,8.09
2023-02-26T14:53:00.103Z,7.11
2023-02-26T14:58:13.636Z,9.44
2023-02-26T15:03:30.004Z,9.68
2023-02-26T15:08:44.314Z,10.55
2023-02-26T15:14:03.724Z,10.02
2023-02-26T15:19:19.215Z,14.53
2023-02-26T15:24:23.096Z,7.09
2023-02-26T15:29:32.325Z,7.79
2023-02-26T15:34:36.481Z,25.76
2023-02-26T15:39:42.912Z,16.21
2023-02-26T15:44:56.884Z,9.73
2023-02-26T15:50:04.182Z,20.77
2023-02-26T15:55:08.508Z,12.86
2023-02-26T16:00:17.347Z,9.32
2023-02-26T16:05:21.126Z,12.44
2023-02-26T16:10:30.787Z,16.49
2023-02-26T16:15:38.107Z,13.58
2023-02-26T16:20:45.001Z,10.94
2023-02-26T16:25:53.532Z,12.12
2023-02-26T16:31:00.794Z,10.36
2023-02-26T16:36:06.157Z,10.58
2023-02-26T16:41:11.148Z,10.74
2023-02-26T16:46:16.912Z,15.66
2023-02-26T16:51:25.378Z,12.76
2023-02-26T16:56:31.069Z,12.64
2023-02-26T17:01:39.628Z,25.72
2023-02-26T17:06:43.189Z,12.18
2023-02-26T17:11:49.691Z,14.60
2023-02-26T17:16:54.599Z,20.62
2023-02-26T17:21:59.383Z,45.48
2023-02-26T17:27:03.914Z,23.99
2023-02-26T17:32:16.102Z,25.22
2023-02-26T17:37:22.191Z,24.47
2023-02-26T17:42:25.654Z,24.71
2023-02-26T17:47:30.448Z,24.55
2023-02-26T17:52:33.969Z,27.11
2023-02-26T17:57:41.066Z,25.06
2023-02-26T18:02:45.972Z,23.18
2023-02-26T18:07:53.084Z,23.55
2023-02-26T18:12:56.678Z,31.68
2023-02-26T18:18:01.767Z,22.09
2023-02-26T18:23:12.515Z,21.42
2023-02-26T18:28:24.787Z,24.99
2023-02-26T18:33:29.705Z,31.85
2023-02-26T18:38:36.203Z,25.04
2023-02-26T18:43:39.665Z,28.87
2023-02-26T18:48:44.495Z,27.52
2023-02-26T18:53:47.950Z,26.09
2023-02-26T18:58:53.470Z,21.15
2023-02-26T19:03:58.576Z,18.08
2023-02-26T19:09:06.908Z,28.54
2023-02-26T19:14:10.877Z,27.71
2023-02-26T19:19:16.176Z,29.97
2023-02-26T19:24:19.632Z,28.83
2023-02-26T19:29:23.030Z,30.12
2023-02-26T19:34:30.063Z,26.76
2023-02-26T19:39:38.245Z,33.87
2023-02-26T19:44:43.978Z,26.98
2023-02-26T19:49:53.521Z,29.97
2023-02-26T19:54:59.371Z,34.97
2023-02-26T20:00:03.514Z,30.43
2023-02-26T20:05:17.138Z,32.42
2023-02-26T20:10:23.552Z,26.87
2023-02-26T20:15:30.295Z,39.01
2023-02-26T20:20:35.438Z,24.14
2023-02-26T20:25:41.183Z,21.60
2023-02-26T20:30:44.821Z,24.89
2023-02-26T20:35:52.361Z,26.66
2023-02-26T20:40:57.218Z,22.57
2023-02-26T20:46:07.025Z,46.08
2023-02-26T20:51:18.095Z,26.00
2023-02-26T20:56:27.086Z,21.78
2023-02-26T21:01:35.722Z,29.11
2023-02-26T21:06:40.890Z,24.43
2023-02-26T21:11:44.879Z,22.00
2023-02-26T21:16:50.762Z,14022.89
2023-02-26T21:21:58.119Z,4891.76
2023-02-26T21:27:03.533Z,5867.58
2023-02-26T21:32:07.261Z,7876.21
2023-02-26T21:37:14.653Z,12483.61
2023-02-26T21:42:18.162Z,20884.48
2023-02-26T21:47:21.557Z,51233.79
2023-02-26T21:52:28.939Z,29276.89
2023-02-26T21:57:32.685Z,21266.85
2023-02-26T22:02:38.905Z,7540.46
2023-02-26T22:07:44.576Z,1609.77
2023-02-26T22:12:50.335Z,742.56
2023-02-26T22:17:53.783Z,1118.64
2023-02-26T22:22:58.913Z,2597.58
2023-02-26T22:28:02.623Z,2169.73
2023-02-26T22:33:06.407Z,1888.25
2023-02-26T22:38:11.955Z,196.03
2023-02-26T22:43:15.462Z,165.19
2023-02-26T22:48:21.552Z,516.09
2023-02-26T22:53:26.383Z,906.14
2023-02-26T22:58:29.959Z,1541.67
2023-02-26T23:03:33.877Z,2199.99
2023-02-26T23:08:43.730Z,1725.24
2023-02-26T23:13:49.126Z,6074.37
2023-02-26T23:18:52.583Z,13417.60
2023-02-26T23:24:01.974Z,2825.90
2023-02-26T23:29:06.457Z,273.97
2023-02-26T23:34:11.044Z,107.44
2023-02-26T23:39:18.252Z,98.41
2023-02-26T23:44:21.889Z,66.46
2023-02-26T23:49:27.667Z,53.46
2023-02-26T23:54:32.581Z,51.05
2023-02-26T23:59:36.430Z,44.56
